Time;durP1;ratioP1;P1;durP2;ratioP2;P2;SDS_P1;SDS_P2;PMS_P1;PMS_P2;Temp;Humidity;BMP_temperature;BMP_pressure;BME280_temperature;BME280_humidity;BME280_pressure;Samples;Min_cycle;Max_cycle;Signal;HPM_P1;HPM_P2
2023/01/24 04:00:42;;;;;;;3.30;2.22;;;14.50;49.60;;;;;;5698085;23;45925;-64
2023/01/24 04:03:07;;;;;;;3.05;2.00;;;14.60;49.60;;;;;;4888929;23;45331;-63
2023/01/24 04:05:34;;;;;;;2.45;1.90;;;14.50;49.60;;;;;;4881317;28;45488;-61
2023/01/24 04:07:59;;;;;;;3.05;2.00;;;14.50;49.60;;;;;;4884660;28;46282;-61
2023/01/24 04:10:25;;;;;;;2.42;2.17;;;14.50;49.60;;;;;;4885021;28;45541;-61
2023/01/24 04:12:50;;;;;;;2.67;2.13;;;14.50;49.60;;;;;;4887999;28;45357;-61
2023/01/24 04:15:20;;;;;;;2.75;2.15;;;14.40;49.50;;;;;;4866603;29;44846;-61
2023/01/24 04:17:49;;;;;;;3.47;2.13;;;14.50;49.60;;;;;;4864866;29;45639;-62
2023/01/24 04:20:15;;;;;;;3.13;1.90;;;14.50;49.60;;;;;;4852560;29;45262;-59
2023/01/24 04:22:40;;;;;;;3.53;2.28;;;14.40;49.50;;;;;;4858419;29;45222;-60
2023/01/24 04:25:06;;;;;;;2.78;2.08;;;14.40;49.50;;;;;;4871853;29;45455;-61
2023/01/24 04:27:32;;;;;;;3.40;2.03;;;14.40;49.60;;;;;;4841934;29;46436;-61
2023/01/24 04:29:57;;;;;;;3.13;2.25;;;14.40;49.60;;;;;;4874561;29;45652;-64
2023/01/24 04:32:23;;;;;;;2.70;2.10;;;14.40;49.60;;;;;;4871790;29;45415;-62
2023/01/24 04:34:49;;;;;;;2.40;1.98;;;14.40;49.60;;;;;;4869564;29;45499;-62
2023/01/24 04:37:14;;;;;;;3.28;2.13;;;14.40;49.60;;;;;;4865319;29;45203;-62
2023/01/24 04:39:40;;;;;;;3.35;1.92;;;14.40;49.60;;;;;;4870469;29;45102;-62
2023/01/24 04:42:06;;;;;;;2.92;2.15;;;14.40;49.60;;;;;;4865460;29;45661;-59
2023/01/24 04:44:32;;;;;;;2.72;2.00;;;14.40;49.60;;;;;;4866952;29;45167;-61
2023/01/24 04:46:57;;;;;;;2.00;1.80;;;14.30;49.60;;;;;;4865836;29;45279;-60
2023/01/24 04:49:23;;;;;;;2.33;1.90;;;14.30;49.60;;;;;;4871246;29;45023;-61
2023/01/24 04:51:49;;;;;;;2.38;2.08;;;14.30;49.60;;;;;;4869599;29;45040;-59
2023/01/24 04:54:15;;;;;;;3.28;2.28;;;14.30;49.60;;;;;;4870102;29;44998;-61
2023/01/24 04:56:41;;;;;;;3.17;2.40;;;14.30;49.60;;;;;;4856427;29;47191;-60
2023/01/24 04:59:06;;;;;;;3.03;2.25;;;14.30;49.60;;;;;;4869613;29;44890;-60
2023/01/24 05:01:32;;;;;;;2.42;2.00;;;14.30;49.60;;;;;;4851597;29;45337;-62
2023/01/24 05:04:00;;;;;;;2.63;1.95;;;14.30;49.60;;;;;;4878418;28;45306;-58
2023/01/24 05:06:26;;;;;;;2.53;1.90;;;14.30;49.70;;;;;;4886751;28;45438;-60
2023/01/24 05:08:55;;;;;;;1.90;1.70;;;14.20;49.70;;;;;;4885569;28;45804;-61
2023/01/24 05:11:20;;;;;;;2.75;2.25;;;14.20;49.70;;;;;;4871960;28;45329;-61
2023/01/24 05:13:46;;;;;;;2.42;1.95;;;14.30;49.60;;;;;;4888722;28;45616;-60
2023/01/24 05:16:12;;;;;;;2.00;1.63;;;14.40;49.40;;;;;;4871134;29;46028;-59
2023/01/24 05:18:38;;;;;;;2.70;1.98;;;14.60;49.10;;;;;;4886741;28;45359;-62
2023/01/24 05:21:16;;;;;;;3.15;2.03;;;14.80;48.90;;;;;;4887021;28;45323;-61
2023/01/24 05:23:42;;;;;;;2.45;1.85;;;15.00;48.50;;;;;;4870889;29;44913;-61
2023/01/24 05:26:08;;;;;;;2.55;1.83;;;15.20;48.30;;;;;;4889176;28;45728;-62
2023/01/24 05:28:33;;;;;;;2.45;2.25;;;15.40;48.00;;;;;;4886979;28;45337;-61
2023/01/24 05:31:00;;;;;;;2.95;1.88;;;15.60;47.80;;;;;;4869284;28;45656;-60
2023/01/24 05:33:25;;;;;;;2.47;1.80;;;15.70;47.50;;;;;;4885907;28;45651;-62
2023/01/24 05:36:01;;;;;;;2.20;1.73;;;15.80;47.30;;;;;;4877842;29;45913;-62
2023/01/24 05:38:27;;;;;;;2.00;1.52;;;16.10;47.10;;;;;;4873022;28;45223;-62
2023/01/24 05:40:52;;;;;;;1.85;1.50;;;16.20;47.00;;;;;;4887832;28;45225;-61
2023/01/24 05:43:18;;;;;;;2.30;1.92;;;16.30;46.80;;;;;;4874424;28;45413;-61
2023/01/24 05:45:43;;;;;;;2.40;1.60;;;16.50;46.70;;;;;;4886517;28;45437;-60
2023/01/24 05:48:12;;;;;;;2.92;1.80;;;16.60;46.50;;;;;;4872131;29;44734;-60
2023/01/24 05:50:38;;;;;;;2.47;1.70;;;16.70;46.60;;;;;;4875428;28;45599;-63
2023/01/24 05:53:03;;;;;;;2.20;1.90;;;16.90;46.30;;;;;;4887608;28;45186;-60
2023/01/24 05:55:29;;;;;;;2.28;1.55;;;17.00;46.20;;;;;;4888419;28;46120;-63
2023/01/24 05:57:54;;;;;;;1.77;1.48;;;17.00;46.10;;;;;;4872327;29;45230;-61
2023/01/24 06:00:20;;;;;;;1.90;1.58;;;17.00;46.10;;;;;;4888592;28;44992;-59
2023/01/24 06:02:46;;;;;;;1.67;1.40;;;17.00;46.20;;;;;;4870939;28;45218;-60
2023/01/24 06:05:11;;;;;;;2.25;1.90;;;17.10;46.40;;;;;;4870406;28;46390;-62
2023/01/24 06:07:37;;;;;;;2.28;1.52;;;17.20;46.20;;;;;;4888526;29;45165;-60
2023/01/24 06:10:04;;;;;;;3.13;1.85;;;17.30;46.00;;;;;;4887288;28;45324;-62
2023/01/24 06:12:29;;;;;;;1.75;1.40;;;17.50;45.90;;;;;;4883402;28;45785;-61
2023/01/24 06:14:55;;;;;;;1.77;1.30;;;17.60;45.80;;;;;;4871031;29;46494;-61
2023/01/24 06:17:20;;;;;;;2.13;1.70;;;17.70;45.50;;;;;;4888438;28;45032;-62
2023/01/24 06:19:46;;;;;;;2.20;1.63;;;17.90;45.40;;;;;;4858349;28;47003;-60
2023/01/24 06:22:25;;;;;;;1.83;1.55;;;18.00;45.20;;;;;;4884194;28;45506;-62
2023/01/24 06:24:51;;;;;;;2.00;1.70;;;18.20;44.80;;;;;;4860092;29;46011;-59
2023/01/24 06:27:16;;;;;;;2.45;1.65;;;18.30;44.90;;;;;;4882821;28;45328;-66
2023/01/24 06:29:42;;;;;;;1.73;1.50;;;18.40;44.80;;;;;;4869147;28;44995;-61
2023/01/24 06:32:13;;;;;;;1.90;1.50;;;18.50;44.60;;;;;;4888422;28;45341;-60
2023/01/24 06:34:54;;;;;;;1.88;1.50;;;18.70;44.50;;;;;;4889279;28;45627;-61
2023/01/24 06:37:21;;;;;;;2.53;1.73;;;18.80;44.20;;;;;;4875206;28;44949;-60
2023/01/24 06:39:51;;;;;;;1.80;1.50;;;18.90;44.20;;;;;;4856598;28;45548;-61
2023/01/24 06:42:20;;;;;;;1.90;1.40;;;19.10;44.00;;;;;;4887103;28;44932;-58
2023/01/24 06:44:46;;;;;;;2.40;1.73;;;19.20;44.10;;;;;;4861029;28;46400;-58
2023/01/24 06:47:12;;;;;;;2.17;1.50;;;19.30;44.10;;;;;;4891025;28;45073;-59
2023/01/24 06:49:38;;;;;;;1.77;1.52;;;19.40;44.10;;;;;;4891234;28;45474;-61
2023/01/24 06:52:03;;;;;;;2.08;1.52;;;19.40;44.00;;;;;;4887227;28;45526;-58
2023/01/24 06:54:29;;;;;;;1.60;1.25;;;19.40;44.00;;;;;;4878870;29;46262;-61
2023/01/24 06:56:54;;;;;;;1.77;1.38;;;19.40;44.10;;;;;;4885923;28;45644;-63
2023/01/24 06:59:22;;;;;;;1.60;1.35;;;19.50;44.10;;;;;;4887393;28;45173;-61
2023/01/24 07:01:51;;;;;;;1.77;1.30;;;19.50;44.10;;;;;;4890441;28;45298;-61
2023/01/24 07:04:17;;;;;;;2.60;1.55;;;19.70;44.00;;;;;;4874059;29;46640;-61
2023/01/24 07:06:42;;;;;;;1.23;1.13;;;19.80;44.00;;;;;;4842299;29;45794;-57
2023/01/24 07:09:08;;;;;;;1.10;1.00;;;19.90;43.90;;;;;;4873591;29;45268;-59
2023/01/24 07:11:34;;;;;;;1.83;1.35;;;20.00;44.40;;;;;;4886983;28;45532;-64
2023/01/24 07:13:59;;;;;;;2.08;1.48;;;20.10;43.70;;;;;;4871261;28;45429;-60
2023/01/24 07:16:25;;;;;;;1.48;1.10;;;20.20;43.60;;;;;;4888148;28;44997;-61
2023/01/24 07:18:50;;;;;;;1.73;1.38;;;20.30;43.40;;;;;;4887247;28;45267;-61
2023/01/24 07:21:16;;;;;;;2.38;1.42;;;20.40;43.30;;;;;;4878645;29;46103;-58
2023/01/24 07:23:46;;;;;;;1.27;1.10;;;20.60;43.30;;;;;;4874788;28;46259;-67
2023/01/24 07:26:12;;;;;;;1.65;1.25;;;20.70;43.30;;;;;;4888009;28;45494;-60
2023/01/24 07:28:38;;;;;;;1.35;1.10;;;20.70;43.20;;;;;;4886797;28;46808;-62
2023/01/24 07:31:04;;;;;;;1.40;1.30;;;20.90;43.20;;;;;;4891180;28;45454;-62
2023/01/24 07:33:29;;;;;;;1.52;1.23;;;21.00;43.00;;;;;;4886158;28;45946;-61
2023/01/24 07:35:55;;;;;;;1.33;1.13;;;21.10;43.00;;;;;;4876610;29;44806;-61
2023/01/24 07:38:20;;;;;;;1.40;1.15;;;21.20;42.90;;;;;;4880230;29;45438;-65
2023/01/24 07:40:46;;;;;;;1.85;1.30;;;21.30;42.90;;;;;;4891767;28;44714;-62
2023/01/24 07:43:11;;;;;;;1.95;1.10;;;21.40;42.90;;;;;;4847053;29;46874;-59
2023/01/24 07:45:38;;;;;;;1.35;1.02;;;21.40;42.80;;;;;;4878754;29;44649;-61
2023/01/24 07:48:05;;;;;;;1.33;1.10;;;21.50;42.80;;;;;;4885523;28;44901;-61
2023/01/24 07:50:31;;;;;;;0.90;0.90;;;21.60;42.80;;;;;;4874730;29;45432;-58
2023/01/24 07:52:56;;;;;;;1.15;1.02;;;21.60;42.70;;;;;;4888637;28;45578;-60
2023/01/24 07:55:22;;;;;;;1.10;1.00;;;21.70;42.70;;;;;;4878861;28;45035;-58
2023/01/24 07:57:47;;;;;;;2.22;1.45;;;21.80;42.70;;;;;;4866059;29;47026;-64
2023/01/24 08:00:14;;;;;;;1.42;1.20;;;21.80;42.50;;;;;;4896980;28;44739;-67
2023/01/24 08:02:43;;;;;;;1.50;1.40;;;21.80;42.40;;;;;;4877028;28;46173;-61
2023/01/24 08:05:08;;;;;;;1.60;1.10;;;21.80;42.50;;;;;;4891256;28;44986;-61
2023/01/24 08:07:34;;;;;;;1.48;1.20;;;21.80;42.60;;;;;;4884032;29;45473;-63
2023/01/24 08:10:00;;;;;;;1.60;1.20;;;21.80;42.70;;;;;;4875421;28;45334;-63
2023/01/24 08:12:25;;;;;;;1.48;1.30;;;21.90;42.60;;;;;;4892975;28;47570;-59
2023/01/24 08:14:51;;;;;;;1.60;1.00;;;21.90;42.50;;;;;;4890248;28;45267;-61
2023/01/24 08:17:17;;;;;;;0.95;0.93;;;22.00;42.40;;;;;;4865510;28;45221;-64
2023/01/24 08:19:42;;;;;;;1.20;1.10;;;22.20;42.50;;;;;;4865673;29;45530;-64
2023/01/24 08:22:08;;;;;;;1.10;1.00;;;22.20;42.40;;;;;;4894000;28;45361;-60
2023/01/24 08:24:34;;;;;;;1.45;1.20;;;22.30;42.30;;;;;;4887254;28;45333;-58
2023/01/24 08:27:00;;;;;;;1.17;1.08;;;22.40;42.30;;;;;;4883778;29;45244;-64
2023/01/24 08:29:25;;;;;;;1.65;1.33;;;22.40;42.20;;;;;;4871745;28;45382;-60
2023/01/24 08:31:51;;;;;;;1.38;1.20;;;22.50;42.20;;;;;;4876562;28;47129;-64
2023/01/24 08:34:17;;;;;;;1.50;1.10;;;22.60;42.20;;;;;;4889944;28;45395;-70
2023/01/24 08:36:42;;;;;;;1.25;1.15;;;22.60;42.20;;;;;;4877342;29;45371;-63
2023/01/24 08:39:08;;;;;;;1.45;1.20;;;22.60;42.10;;;;;;4865630;28;45221;-64
2023/01/24 08:41:33;;;;;;;1.13;1.00;;;22.70;42.30;;;;;;4893076;28;45354;-65
2023/01/24 08:43:59;;;;;;;1.67;1.10;;;22.80;42.10;;;;;;4885516;28;45089;-61
2023/01/24 08:46:25;;;;;;;1.50;1.13;;;22.80;42.00;;;;;;4889707;28;45537;-60
2023/01/24 08:48:50;;;;;;;1.30;1.20;;;22.90;42.00;;;;;;4879464;29;44643;-62
2023/01/24 08:51:16;;;;;;;1.00;0.90;;;23.00;42.00;;;;;;4891882;28;45396;-62
2023/01/24 08:53:41;;;;;;;1.08;0.88;;;23.00;41.90;;;;;;4891074;28;45096;-65
2023/01/24 08:56:07;;;;;;;1.63;1.15;;;23.10;41.90;;;;;;4890280;28;44921;-64
2023/01/24 08:58:33;;;;;;;1.10;0.95;;;23.10;41.80;;;;;;4887480;28;45481;-58
2023/01/24 09:00:59;;;;;;;1.13;1.02;;;23.20;41.80;;;;;;4891598;28;45530;-60
2023/01/24 09:03:26;;;;;;;1.30;1.20;;;23.20;41.70;;;;;;4869869;29;45188;-67
2023/01/24 09:05:57;;;;;;;0.70;0.70;;;23.30;41.70;;;;;;4876833;29;45112;-60
2023/01/24 09:08:22;;;;;;;1.42;1.17;;;23.30;41.60;;;;;;4863774;29;45561;-60
2023/01/24 09:10:48;;;;;;;1.50;0.95;;;23.40;41.70;;;;;;4870423;29;46247;-61
2023/01/24 09:13:13;;;;;;;1.30;0.90;;;23.40;41.70;;;;;;4858768;29;45282;-62
2023/01/24 09:15:39;;;;;;;1.58;1.15;;;23.40;41.70;;;;;;4873566;29;45365;-58
2023/01/24 09:18:05;;;;;;;1.17;1.05;;;23.40;41.70;;;;;;4870647;29;45013;-61
2023/01/24 09:20:30;;;;;;;1.30;1.15;;;23.50;41.70;;;;;;4873181;29;45231;-62
2023/01/24 09:22:56;;;;;;;1.50;1.27;;;23.50;41.60;;;;;;4871591;29;45259;-59
2023/01/24 09:25:22;;;;;;;1.25;1.10;;;23.50;41.60;;;;;;4873001;29;45453;-63
2023/01/24 09:27:55;;;;;;;1.27;1.17;;;23.50;41.50;;;;;;4874571;29;44971;-61
2023/01/24 09:30:21;;;;;;;;;;;23.50;41.40;;;;;;4875509;29;46392;-59
2023/01/24 09:32:47;;;;;;;1.38;1.10;;;23.50;41.10;;;;;;4870376;29;45194;-65
2023/01/24 09:35:13;;;;;;;1.38;0.90;;;23.50;41.60;;;;;;4874813;29;44890;-61
2023/01/24 09:37:40;;;;;;;1.60;1.27;;;23.50;41.60;;;;;;4873801;29;44969;-65
2023/01/24 09:40:08;;;;;;;1.30;1.17;;;23.40;41.60;;;;;;4874750;29;45696;-65
2023/01/24 09:42:41;;;;;;;1.30;1.00;;;23.30;41.70;;;;;;4856460;29;45141;-64
2023/01/24 09:45:06;;;;;;;3.53;1.00;;;23.30;41.80;;;;;;4873478;29;45526;-65
2023/01/24 09:47:52;;;;;;;1.40;1.08;;;23.20;42.00;;;;;;4870468;29;45327;-62
2023/01/24 09:50:29;;;;;;;1.17;1.08;;;23.30;41.70;;;;;;4853587;29;46183;-61
2023/01/24 09:52:58;;;;;;;0.98;0.88;;;23.40;41.90;;;;;;4857596;29;44997;-62
2023/01/24 09:55:42;;;;;;;1.17;1.00;;;23.40;42.20;;;;;;4857682;29;45342;-65
2023/01/24 09:58:31;;;;;;;0.60;0.60;;;23.50;41.80;;;;;;4869389;29;44714;-58
2023/01/24 10:01:01;;;;;;;1.00;0.93;;;23.50;41.70;;;;;;4876694;29;45323;-59
2023/01/24 10:03:27;;;;;;;1.05;0.90;;;23.60;41.70;;;;;;4876091;28;45142;-62
2023/01/24 10:05:54;;;;;;;1.00;0.90;;;23.70;41.80;;;;;;4863931;29;45279;-61
2023/01/24 10:08:29;;;;;;;0.70;0.70;;;23.70;41.70;;;;;;4867943;29;45694;-70
2023/01/24 10:11:22;;;;;;;0.80;0.70;;;23.70;41.50;;;;;;4890497;28;46141;-63
2023/01/24 10:13:57;;;;;;;1.27;1.02;;;23.70;41.40;;;;;;4871980;28;45462;-65
2023/01/24 10:16:48;;;;;;;1.33;1.10;;;23.70;41.60;;;;;;4891930;28;45620;-65
2023/01/24 10:19:20;;;;;;;1.10;1.00;;;23.80;41.70;;;;;;4850893;28;45319;-66
2023/01/24 10:22:16;;;;;;;1.20;1.07;;;23.80;41.60;;;;;;4895379;28;45453;-60
2023/01/24 10:24:45;;;;;;;1.20;0.90;;;23.90;41.40;;;;;;4891740;28;45123;-57
2023/01/24 10:27:42;;;;;;;0.75;0.75;;;23.90;41.60;;;;;;4877671;29;45474;-62
2023/01/24 10:30:21;;;;;;;2.92;0.80;;;23.90;41.50;;;;;;4891774;28;44779;-60
2023/01/24 10:32:48;;;;;;;1.17;0.98;;;23.90;41.30;;;;;;4861612;29;45494;-62
2023/01/24 10:35:23;;;;;;;0.90;0.82;;;23.90;41.50;;;;;;4859698;29;44662;-63
2023/01/24 10:37:55;;;;;;;0.85;0.85;;;23.90;41.40;;;;;;4867029;29;45188;-61
2023/01/24 10:40:21;;;;;;;0.80;0.80;;;23.90;41.40;;;;;;4872566;29;45068;-61
2023/01/24 10:42:47;;;;;;;0.80;0.75;;;23.90;41.50;;;;;;4848804;29;47062;-62
2023/01/24 10:45:37;;;;;;;1.00;0.90;;;24.00;41.60;;;;;;4883426;28;45903;-60
2023/01/24 10:48:50;;;;;;;1.00;0.90;;;24.00;41.30;;;;;;4884453;28;45143;-63
2023/01/24 10:51:23;;;;;;;0.68;0.68;;;24.00;41.30;;;;;;4879067;29;45277;-62
2023/01/24 10:53:49;;;;;;;1.15;1.02;;;24.00;41.40;;;;;;4874246;29;46307;-61
2023/01/24 10:56:19;;;;;;;0.88;0.88;;;24.10;41.50;;;;;;4884552;28;45356;-61
2023/01/24 10:58:59;;;;;;;0.70;0.70;;;24.10;41.50;;;;;;4858622;29;45533;-62
2023/01/24 11:01:33;;;;;;;0.63;0.63;;;24.20;41.30;;;;;;4859280;28;45640;-62
2023/01/24 11:03:59;;;;;;;0.80;0.80;;;24.20;41.30;;;;;;4875243;29;45540;-62
2023/01/24 11:06:27;;;;;;;0.95;0.77;;;24.20;41.40;;;;;;4857094;28;45047;-62
2023/01/24 11:09:14;;;;;;;1.05;0.85;;;24.20;41.40;;;;;;4891227;28;45304;-66
2023/01/24 11:11:48;;;;;;;1.30;0.80;;;24.30;41.20;;;;;;4878016;29;45012;-64
2023/01/24 11:14:15;;;;;;;1.23;0.93;;;24.30;41.50;;;;;;4874169;29;45422;-65
2023/01/24 11:16:43;;;;;;;0.85;0.80;;;24.30;41.50;;;;;;4885810;28;45484;-63
2023/01/24 11:19:26;;;;;;;0.95;0.82;;;24.30;41.50;;;;;;4875143;29;45759;-62
2023/01/24 11:21:53;;;;;;;0.80;0.80;;;24.30;41.20;;;;;;4888329;28;45033;-63
2023/01/24 11:24:20;;;;;;;1.05;0.75;;;24.30;41.30;;;;;;4873578;28;45565;-65
2023/01/24 11:27:02;;;;;;;1.10;0.85;;;24.30;41.30;;;;;;4875256;29;45307;-65
2023/01/24 11:29:27;;;;;;;0.93;0.90;;;24.30;40.90;;;;;;4879119;28;47541;-62
2023/01/24 11:32:35;;;;;;;1.00;0.90;;;24.20;41.20;;;;;;4851035;29;45130;-66
2023/01/24 11:35:29;;;;;;;0.80;0.80;;;24.30;40.80;;;;;;4884223;28;45583;-60
2023/01/24 11:38:19;;;;;;;0.82;0.82;;;24.20;40.80;;;;;;4875326;28;45601;-63
2023/01/24 11:41:12;;;;;;;1.20;0.90;;;24.20;41.10;;;;;;4894836;28;45386;-65
2023/01/24 11:44:16;;;;;;;0.90;0.80;;;24.20;41.20;;;;;;4880656;28;45191;-60
2023/01/24 11:46:56;;;;;;;1.10;0.90;;;24.10;41.00;;;;;;4895879;28;46373;-63
2023/01/24 11:49:44;;;;;;;1.20;1.10;;;24.00;41.20;;;;;;4882337;28;45593;-64
2023/01/24 11:52:39;;;;;;;1.13;0.90;;;23.90;41.30;;;;;;4894094;28;45502;-62
2023/01/24 11:55:16;;;;;;;0.90;0.77;;;23.80;41.60;;;;;;4881263;28;45285;-60
2023/01/24 11:58:07;;;;;;;1.27;0.80;;;23.80;41.70;;;;;;4883124;28;45616;-63
2023/01/24 12:00:55;;;;;;;0.82;0.82;;;23.90;41.50;;;;;;4877744;28;45604;-60
2023/01/24 12:03:34;;;;;;;1.13;0.85;;;23.90;41.30;;;;;;4862149;29;45333;-56
2023/01/24 12:06:08;;;;;;;0.80;0.80;;;24.00;41.40;;;;;;4877272;29;45324;-62
2023/01/24 12:09:01;;;;;;;1.10;0.90;;;24.00;41.60;;;;;;4870209;29;45965;-62
2023/01/24 12:11:26;;;;;;;1.00;0.90;;;24.00;41.30;;;;;;4880381;29;45444;-65
2023/01/24 12:13:57;;;;;;;0.77;0.77;;;24.10;41.50;;;;;;4872003;29;45210;-63
2023/01/24 12:16:42;;;;;;;1.13;0.70;;;24.10;41.50;;;;;;4880423;29;44731;-63
2023/01/24 12:19:34;;;;;;;1.20;0.90;;;24.10;41.40;;;;;;4878337;29;45509;-62
2023/01/24 12:22:00;;;;;;;0.70;0.70;;;24.10;41.30;;;;;;4882314;29;45239;-61
2023/01/24 12:24:30;;;;;;;1.08;0.75;;;24.10;41.50;;;;;;4872667;29;45225;-62
2023/01/24 12:26:59;;;;;;;0.65;0.63;;;24.20;41.50;;;;;;4842168;29;45154;-61
2023/01/24 12:29:33;;;;;;;1.00;0.90;;;24.20;41.50;;;;;;4856992;29;45223;-61
2023/01/24 12:32:14;;;;;;;0.90;0.65;;;24.20;41.50;;;;;;4871760;29;45229;-65
2023/01/24 12:35:13;;;;;;;0.63;0.63;;;24.20;41.50;;;;;;4871969;29;45250;-63
2023/01/24 12:37:55;;;;;;;0.60;0.60;;;24.20;41.30;;;;;;4881134;29;45645;-60
2023/01/24 12:40:24;;;;;;;0.82;0.70;;;24.20;41.40;;;;;;4863802;29;45436;-61
2023/01/24 12:43:16;;;;;;;0.90;0.80;;;24.20;41.30;;;;;;4882707;29;45247;-63
2023/01/24 12:46:01;;;;;;;0.98;0.88;;;24.30;41.10;;;;;;4865735;29;45589;-62
2023/01/24 12:48:40;;;;;;;1.00;0.90;;;24.30;41.20;;;;;;4880432;29;45517;-62
2023/01/24 12:51:23;;;;;;;1.33;1.00;;;24.30;41.10;;;;;;4867268;29;45155;-60
2023/01/24 12:53:55;;;;;;;0.73;0.70;;;24.30;41.10;;;;;;4860987;29;45807;-62
2023/01/24 12:56:51;;;;;;;0.88;0.80;;;24.30;41.40;;;;;;4880020;29;44922;-60
2023/01/24 12:59:28;;;;;;;0.90;0.90;;;24.30;41.30;;;;;;4875759;29;45563;-62
2023/01/24 13:02:19;;;;;;;1.05;0.70;;;24.30;41.50;;;;;;4861701;29;48810;-61
2023/01/24 13:05:04;;;;;;;1.08;0.98;;;24.30;41.30;;;;;;4875390;29;44711;-62
2023/01/24 13:07:41;;;;;;;1.58;0.75;;;24.40;41.50;;;;;;4883139;29;44976;-61
2023/01/24 13:10:23;;;;;;;0.80;0.80;;;24.40;41.40;;;;;;4874054;29;45185;-62
2023/01/24 13:12:49;;;;;;;1.00;0.70;;;24.40;41.30;;;;;;4875196;29;45471;-61
2023/01/24 13:15:25;;;;;;;0.80;0.68;;;24.40;41.40;;;;;;4865581;29;45228;-62
2023/01/24 13:18:09;;;;;;;0.60;0.60;;;24.40;41.40;;;;;;4869143;29;45171;-60
2023/01/24 13:20:48;;;;;;;0.88;0.80;;;24.40;41.30;;;;;;4868965;29;44837;-63
2023/01/24 13:23:27;;;;;;;0.70;0.70;;;24.40;41.30;;;;;;4874611;29;45783;-62
2023/01/24 13:26:15;;;;;;;0.60;0.50;;;24.50;41.40;;;;;;4872987;29;45051;-62
2023/01/24 13:29:08;;;;;;;0.80;0.80;;;24.50;42.00;;;;;;4875281;29;45267;-62
2023/01/24 13:31:58;;;;;;;0.70;0.70;;;24.50;41.40;;;;;;4845837;29;45219;-63
2023/01/24 13:34:30;;;;;;;1.10;0.88;;;24.50;41.20;;;;;;4874916;29;45426;-62
2023/01/24 13:36:56;;;;;;;1.83;0.90;;;24.50;41.20;;;;;;4877449;29;44883;-63
2023/01/24 13:39:41;;;;;;;2.95;0.95;;;24.50;41.30;;;;;;4861323;29;45192;-62
2023/01/24 13:42:43;;;;;;;0.95;0.85;;;24.50;41.10;;;;;;4868371;29;45138;-62
2023/01/24 13:45:26;;;;;;;1.00;0.80;;;24.50;41.30;;;;;;4841708;29;45462;-62
2023/01/24 13:47:52;;;;;;;;;;;24.50;41.10;;;;;;4872411;29;44970;-62
2023/01/24 13:50:21;;;;;;;1.17;0.80;;;24.50;41.10;;;;;;4886900;28;45207;-60
2023/01/24 13:52:49;;;;;;;0.68;0.63;;;24.50;41.40;;;;;;4877310;29;45258;-61
2023/01/24 13:55:24;;;;;;;0.80;0.80;;;24.50;41.40;;;;;;4876418;29;45446;-59
2023/01/24 13:58:12;;;;;;;0.65;0.60;;;24.50;41.40;;;;;;4872862;29;45442;-60
2023/01/24 14:00:49;;;;;;;0.70;0.70;;;24.50;41.10;;;;;;4874614;29;45562;-62
2023/01/24 14:03:36;;;;;;;1.33;0.82;;;24.50;41.20;;;;;;4843653;29;45001;-60
2023/01/24 14:06:01;;;;;;;0.75;0.70;;;24.50;41.20;;;;;;4864633;29;46539;-61
2023/01/24 14:08:27;;;;;;;0.73;0.70;;;24.30;42.20;;;;;;4874708;29;44741;-58
2023/01/24 14:11:04;;;;;;;1.00;0.90;;;24.30;41.60;;;;;;4872313;29;45261;-61
2023/01/24 14:13:43;;;;;;;0.88;0.73;;;24.30;41.60;;;;;;4892831;28;45184;-61
2023/01/24 14:16:09;;;;;;;1.25;0.90;;;24.40;41.60;;;;;;4875490;29;45337;-59
2023/01/24 14:19:12;;;;;;;0.65;0.65;;;24.40;41.70;;;;;;4845470;29;45469;-60
2023/01/24 14:22:08;;;;;;;1.65;0.60;;;24.40;41.50;;;;;;4868322;29;45224;-61
2023/01/24 14:24:49;;;;;;;0.57;0.57;;;24.50;41.50;;;;;;4886426;28;44666;-61
2023/01/24 14:27:29;;;;;;;0.75;0.70;;;24.50;41.50;;;;;;4878675;29;46605;-62
2023/01/24 14:30:09;;;;;;;0.80;0.65;;;24.50;41.50;;;;;;4860465;29;45252;-61
2023/01/24 14:32:46;;;;;;;1.65;0.80;;;24.50;41.50;;;;;;4874552;29;45186;-62
2023/01/24 14:35:24;;;;;;;0.65;0.65;;;24.50;41.50;;;;;;4856374;29;45360;-63
2023/01/24 14:37:51;;;;;;;0.82;0.75;;;24.60;41.50;;;;;;4873679;29;46344;-63
2023/01/24 14:40:19;;;;;;;1.08;0.80;;;24.60;41.60;;;;;;4875198;29;45293;-62
2023/01/24 14:42:46;;;;;;;0.70;0.70;;;24.60;41.60;;;;;;4876537;29;45237;-62
2023/01/24 14:45:21;;;;;;;1.17;0.93;;;24.60;41.60;;;;;;4876839;29;46021;-61
2023/01/24 14:47:48;;;;;;;0.57;0.57;;;24.60;41.40;;;;;;4865643;29;45253;-62
2023/01/24 14:50:34;;;;;;;0.93;0.77;;;24.60;41.50;;;;;;4859882;29;45283;-62
2023/01/24 14:53:20;;;;;;;0.80;0.80;;;24.60;41.40;;;;;;4876774;29;45738;-62
2023/01/24 14:55:46;;;;;;;1.33;0.80;;;24.60;41.50;;;;;;4850864;29;45284;-62
2023/01/24 14:58:19;;;;;;;1.55;1.02;;;24.70;41.50;;;;;;4843333;29;45318;-62
2023/01/24 15:00:44;;;;;;;1.10;0.77;;;24.70;41.40;;;;;;4876328;29;44758;-61
2023/01/24 15:03:15;;;;;;;0.77;0.63;;;24.70;41.40;;;;;;4881439;28;44755;-61
2023/01/24 15:05:42;;;;;;;0.65;0.65;;;24.70;41.40;;;;;;4897875;28;45184;-62
2023/01/24 15:08:14;;;;;;;0.70;0.70;;;24.70;41.50;;;;;;4877849;29;45335;-61
2023/01/24 15:10:40;;;;;;;0.60;0.60;;;24.70;41.50;;;;;;4864481;28;45242;-63
2023/01/24 15:13:17;;;;;;;0.57;0.50;;;24.70;41.60;;;;;;4863873;29;45248;-61
2023/01/24 15:15:42;;;;;;;0.80;0.80;;;24.70;41.60;;;;;;4888948;28;45634;-62
2023/01/24 15:18:32;;;;;;;1.08;0.90;;;24.70;41.50;;;;;;4865083;28;45983;-63
2023/01/24 15:20:58;;;;;;;0.80;0.63;;;24.80;41.40;;;;;;4867454;29;44747;-64
2023/01/24 15:23:24;;;;;;;0.90;0.70;;;24.80;41.50;;;;;;4852904;29;45693;-62
2023/01/24 15:25:50;;;;;;;0.70;0.65;;;24.80;41.50;;;;;;4865574;29;45706;-64
2023/01/24 15:28:30;;;;;;;0.88;0.75;;;24.80;41.60;;;;;;4870468;28;46089;-61
2023/01/24 15:30:59;;;;;;;0.73;0.70;;;24.80;41.50;;;;;;4895232;28;45187;-62
2023/01/24 15:33:38;;;;;;;0.60;0.57;;;24.80;41.60;;;;;;4899233;28;45170;-62
2023/01/24 15:36:05;;;;;;;1.05;0.68;;;24.80;41.50;;;;;;4862964;29;45362;-62
2023/01/24 15:38:33;;;;;;;1.13;0.75;;;24.80;41.50;;;;;;4881944;29;45251;-61
2023/01/24 15:41:10;;;;;;;0.60;0.60;;;24.80;41.50;;;;;;4880791;29;46137;-60
2023/01/24 15:43:48;;;;;;;0.80;0.80;;;24.90;41.50;;;;;;4897027;28;45234;-61
2023/01/24 15:49:26;;;;;;;0.85;0.80;;;24.90;41.30;;;;;;4883914;28;45618;-62
2023/01/24 15:52:07;;;;;;;0.68;0.60;;;24.80;41.30;;;;;;4904871;28;45434;-60
2023/01/24 15:54:34;;;;;;;0.60;0.60;;;24.80;41.20;;;;;;4896540;28;45235;-62
2023/01/24 15:57:05;;;;;;;0.80;0.80;;;24.80;41.40;;;;;;4893676;28;44901;-63
2023/01/24 15:59:30;;;;;;;1.00;0.70;;;24.80;41.40;;;;;;4896606;28;45248;-62
2023/01/24 16:01:56;;;;;;;0.80;0.70;;;24.80;41.40;;;;;;4896325;28;45259;-63
2023/01/24 16:04:22;;;;;;;1.00;0.57;;;24.80;41.40;;;;;;4878716;29;44675;-61
2023/01/24 16:06:48;;;;;;;0.60;0.60;;;24.90;41.50;;;;;;4862425;29;46115;-64
2023/01/24 16:09:13;;;;;;;0.88;0.63;;;24.90;41.40;;;;;;4858310;29;45947;-58
2023/01/24 16:11:40;;;;;;;0.80;0.80;;;24.80;41.40;;;;;;4874483;29;45191;-61
2023/01/24 16:14:07;;;;;;;0.68;0.68;;;24.70;41.40;;;;;;4876587;29;44889;-61
2023/01/24 16:16:34;;;;;;;0.60;0.60;;;24.60;41.50;;;;;;4876127;29;45314;-60
2023/01/24 16:18:59;;;;;;;1.15;1.05;;;24.50;41.60;;;;;;4879608;29;46019;-61
2023/01/24 16:21:25;;;;;;;1.20;1.05;;;24.40;41.70;;;;;;4875712;29;45308;-58
2023/01/24 16:23:51;;;;;;;1.35;0.85;;;24.30;41.80;;;;;;4874847;29;45841;-59
2023/01/24 16:26:20;;;;;;;0.80;0.80;;;24.20;42.60;;;;;;4873027;29;45204;-61
2023/01/24 16:28:45;;;;;;;0.88;0.85;;;24.10;42.10;;;;;;4881728;29;45557;-58
2023/01/24 16:31:11;;;;;;;1.15;0.90;;;24.10;42.20;;;;;;4873379;29;46193;-60
2023/01/24 16:33:36;;;;;;;0.75;0.70;;;24.00;42.30;;;;;;4862133;29;44737;-66
2023/01/24 16:36:02;;;;;;;0.82;0.70;;;23.90;42.40;;;;;;4873692;29;45231;-62
2023/01/24 16:38:28;;;;;;;1.10;1.00;;;23.80;42.50;;;;;;4874303;29;45187;-62
2023/01/24 16:40:53;;;;;;;0.80;0.80;;;23.70;42.70;;;;;;4872038;29;44918;-61
2023/01/24 16:43:20;;;;;;;0.88;0.70;;;23.60;42.70;;;;;;4873558;29;45254;-61
2023/01/24 16:45:47;;;;;;;0.70;0.70;;;23.60;42.90;;;;;;4875632;29;45394;-61
2023/01/24 16:48:12;;;;;;;0.70;0.70;;;23.50;43.00;;;;;;4877079;29;45433;-60
2023/01/24 16:50:39;;;;;;;0.93;0.90;;;23.40;43.10;;;;;;4872239;29;45439;-63
2023/01/24 16:53:05;;;;;;;1.90;1.00;;;23.30;43.30;;;;;;4876589;29;45392;-62
2023/01/24 16:55:33;;;;;;;1.02;0.90;;;23.30;43.40;;;;;;4876766;29;45492;-61
2023/01/24 16:57:59;;;;;;;0.95;0.90;;;23.20;43.30;;;;;;4875768;29;45644;-62
2023/01/24 17:00:25;;;;;;;0.85;0.77;;;23.10;43.50;;;;;;4875988;28;45257;-61
2023/01/24 17:02:50;;;;;;;1.65;1.10;;;23.10;43.60;;;;;;4867158;29;44774;-63
2023/01/24 17:05:16;;;;;;;1.83;1.10;;;23.00;43.70;;;;;;4872051;29;45186;-60
2023/01/24 17:07:42;;;;;;;0.80;0.80;;;22.90;43.70;;;;;;4867231;29;46322;-62
2023/01/24 17:10:10;;;;;;;0.85;0.75;;;22.80;43.90;;;;;;4889263;28;45609;-61
2023/01/24 17:12:35;;;;;;;1.15;1.05;;;22.70;44.00;;;;;;4873730;29;45277;-61